DTGRO EDJA-EDDM
Flight info
| Callsign | DTGRO |
|---|---|
| Flight time | 0h 51m |
| Altitude | 4000 |
| Route | VFR |
| Aircraft | C172/L-SFG/C |
Departure
| Time | 2026-05-09 09:07 |
|---|---|
| Airport | Memmingen Allgau Airport (EDJA) |
Arrival
| Time | 2026-05-09 09:59 |
|---|---|
| Airport | Munich Airport (EDDM) |
| Time | Latitude | Longitude | Altitude | Speed | Heading |
|---|---|---|---|---|---|
| 2026-05-09 08:49 | 47.98637 | 10.23669 | 2066 ft | 0 kts | 329° |
| 2026-05-09 09:04 | 47.98641 | 10.23665 | 2074 ft | 3 kts | 327° |
| 2026-05-09 09:04 | 47.98658 | 10.23648 | 2074 ft | 2 kts | 328° |
| 2026-05-09 09:04 | 47.98659 | 10.23647 | 2074 ft | 0 kts | 328° |
| 2026-05-09 09:06 | 47.98667 | 10.23641 | 2074 ft | 5 kts | 333° |
| 2026-05-09 09:06 | 47.98717 | 10.23598 | 2074 ft | 8 kts | 330° |
| 2026-05-09 09:06 | 47.98771 | 10.23658 | 2074 ft | 23 kts | 60° |
| 2026-05-09 09:06 | 47.98932 | 10.24072 | 2066 ft | 68 kts | 59° |
| 2026-05-09 09:07 | 47.99207 | 10.24730 | 2196 ft | 76 kts | 57° |
| 2026-05-09 09:07 | 47.99500 | 10.25360 | 2390 ft | 75 kts | 55° |
| 2026-05-09 09:07 | 47.99814 | 10.26008 | 2571 ft | 79 kts | 65° |
| 2026-05-09 09:07 | 47.99833 | 10.26799 | 2785 ft | 79 kts | 119° |
| 2026-05-09 09:08 | 47.99385 | 10.27205 | 2979 ft | 79 kts | 180° |
| 2026-05-09 09:08 | 47.98897 | 10.26891 | 3201 ft | 77 kts | 219° |
| 2026-05-09 09:08 | 47.98482 | 10.26431 | 3417 ft | 72 kts | 215° |
| 2026-05-09 09:08 | 47.98063 | 10.26034 | 3582 ft | 73 kts | 211° |
| 2026-05-09 09:09 | 47.97601 | 10.25625 | 3711 ft | 80 kts | 210° |
| 2026-05-09 09:09 | 47.97096 | 10.25272 | 3890 ft | 80 kts | 203° |
| 2026-05-09 09:09 | 47.96556 | 10.25198 | 4034 ft | 85 kts | 171° |
| 2026-05-09 09:09 | 47.95905 | 10.25353 | 4061 ft | 101 kts | 178° |
| 2026-05-09 09:10 | 47.95233 | 10.25390 | 4295 ft | 92 kts | 173° |
| 2026-05-09 09:10 | 47.94600 | 10.25521 | 4473 ft | 91 kts | 173° |
| 2026-05-09 09:10 | 47.93984 | 10.25627 | 4686 ft | 87 kts | 173° |
| 2026-05-09 09:10 | 47.93414 | 10.25802 | 4886 ft | 84 kts | 164° |
| 2026-05-09 09:11 | 47.92825 | 10.26095 | 4987 ft | 91 kts | 166° |
| 2026-05-09 09:11 | 47.92191 | 10.26375 | 5058 ft | 100 kts | 170° |
| 2026-05-09 09:11 | 47.91713 | 10.26562 | 5096 ft | 104 kts | 160° |
| 2026-05-09 09:11 | 47.91055 | 10.26922 | 5206 ft | 103 kts | 160° |
| 2026-05-09 09:12 | 47.90344 | 10.27364 | 5123 ft | 119 kts | 158° |
| 2026-05-09 09:12 | 47.89581 | 10.27905 | 5143 ft | 119 kts | 151° |
| 2026-05-09 09:12 | 47.89043 | 10.28823 | 5120 ft | 125 kts | 110° |
| 2026-05-09 09:12 | 47.88945 | 10.30121 | 5128 ft | 123 kts | 90° |
| 2026-05-09 09:13 | 47.89043 | 10.31368 | 5182 ft | 121 kts | 84° |
| 2026-05-09 09:13 | 47.89218 | 10.32595 | 5226 ft | 120 kts | 76° |
| 2026-05-09 09:13 | 47.89458 | 10.33803 | 5208 ft | 125 kts | 72° |
| 2026-05-09 09:13 | 47.89834 | 10.34988 | 5216 ft | 124 kts | 62° |
| 2026-05-09 09:14 | 47.90268 | 10.36144 | 5105 ft | 132 kts | 62° |
| 2026-05-09 09:14 | 47.90742 | 10.37327 | 5049 ft | 132 kts | 59° |
| 2026-05-09 09:14 | 47.91177 | 10.38529 | 4981 ft | 132 kts | 70° |
| 2026-05-09 09:14 | 47.91423 | 10.39840 | 4904 ft | 134 kts | 79° |
| 2026-05-09 09:15 | 47.91629 | 10.41150 | 4960 ft | 125 kts | 78° |
| 2026-05-09 09:15 | 47.91832 | 10.42416 | 4901 ft | 129 kts | 78° |
| 2026-05-09 09:15 | 47.92026 | 10.43741 | 4924 ft | 121 kts | 79° |
| 2026-05-09 09:15 | 47.92195 | 10.44958 | 4939 ft | 124 kts | 80° |
| 2026-05-09 09:16 | 47.92380 | 10.46234 | 4914 ft | 125 kts | 77° |
| 2026-05-09 09:16 | 47.92909 | 10.48768 | 4717 ft | 136 kts | 71° |
| 2026-05-09 09:16 | 47.93196 | 10.50069 | 4728 ft | 130 kts | 75° |
| 2026-05-09 09:17 | 47.93474 | 10.51399 | 4542 ft | 137 kts | 72° |
| 2026-05-09 09:17 | 47.93764 | 10.52661 | 4707 ft | 120 kts | 73° |
| 2026-05-09 09:17 | 47.94010 | 10.53800 | 4844 ft | 109 kts | 73° |
| 2026-05-09 09:17 | 47.94264 | 10.54827 | 4922 ft | 106 kts | 69° |
| 2026-05-09 09:18 | 47.94546 | 10.55935 | 4773 ft | 121 kts | 75° |
| 2026-05-09 09:18 | 47.94712 | 10.57123 | 4861 ft | 111 kts | 82° |
| 2026-05-09 09:18 | 47.94835 | 10.58264 | 4873 ft | 112 kts | 83° |
| 2026-05-09 09:18 | 47.94939 | 10.59390 | 4944 ft | 108 kts | 84° |
| 2026-05-09 09:19 | 47.95071 | 10.60512 | 4966 ft | 111 kts | 83° |
| 2026-05-09 09:19 | 47.95151 | 10.61679 | 4968 ft | 112 kts | 89° |
| 2026-05-09 09:19 | 47.95151 | 10.62822 | 5031 ft | 113 kts | 91° |
| 2026-05-09 09:19 | 47.95300 | 10.63981 | 5029 ft | 115 kts | 70° |
| 2026-05-09 09:20 | 47.95734 | 10.64991 | 5024 ft | 117 kts | 49° |
| 2026-05-09 09:20 | 47.96297 | 10.65842 | 5040 ft | 116 kts | 47° |
| 2026-05-09 09:20 | 47.96906 | 10.66659 | 5037 ft | 117 kts | 40° |
| 2026-05-09 09:20 | 47.97583 | 10.67320 | 5052 ft | 119 kts | 31° |
| 2026-05-09 09:21 | 47.98324 | 10.67847 | 5119 ft | 118 kts | 26° |
| 2026-05-09 09:21 | 47.99077 | 10.68378 | 5193 ft | 121 kts | 29° |
| 2026-05-09 09:21 | 47.99878 | 10.68824 | 5153 ft | 121 kts | 20° |
| 2026-05-09 09:21 | 48.00658 | 10.69310 | 5135 ft | 123 kts | 25° |
| 2026-05-09 09:22 | 48.01457 | 10.69797 | 5239 ft | 122 kts | 25° |
| 2026-05-09 09:22 | 48.02231 | 10.70232 | 5339 ft | 118 kts | 21° |
| 2026-05-09 09:22 | 48.02976 | 10.70786 | 5339 ft | 123 kts | 41° |
| 2026-05-09 09:22 | 48.03577 | 10.71637 | 5515 ft | 115 kts | 48° |
| 2026-05-09 09:23 | 48.04110 | 10.72548 | 5523 ft | 120 kts | 54° |
| 2026-05-09 09:23 | 48.04629 | 10.73567 | 5428 ft | 126 kts | 56° |
| 2026-05-09 09:23 | 48.05117 | 10.74683 | 5404 ft | 127 kts | 66° |
| 2026-05-09 09:23 | 48.05534 | 10.75778 | 5489 ft | 122 kts | 61° |
| 2026-05-09 09:24 | 48.05923 | 10.76940 | 5381 ft | 130 kts | 66° |
| 2026-05-09 09:24 | 48.06323 | 10.78162 | 5311 ft | 133 kts | 68° |
| 2026-05-09 09:24 | 48.06716 | 10.79350 | 5327 ft | 124 kts | 65° |
| 2026-05-09 09:24 | 48.07078 | 10.80554 | 5133 ft | 131 kts | 69° |
| 2026-05-09 09:25 | 48.07482 | 10.81837 | 5131 ft | 132 kts | 65° |
| 2026-05-09 09:25 | 48.07730 | 10.82999 | 5414 ft | 115 kts | 97° |
| 2026-05-09 09:25 | 48.07338 | 10.84088 | 5351 ft | 124 kts | 128° |
| 2026-05-09 09:25 | 48.06795 | 10.85075 | 5299 ft | 125 kts | 131° |
| 2026-05-09 09:26 | 48.06190 | 10.85989 | 5341 ft | 125 kts | 138° |
| 2026-05-09 09:26 | 48.05657 | 10.86986 | 5395 ft | 122 kts | 113° |
| 2026-05-09 09:26 | 48.05670 | 10.88256 | 5303 ft | 129 kts | 70° |
| 2026-05-09 09:26 | 48.06154 | 10.89366 | 5370 ft | 124 kts | 60° |
| 2026-05-09 09:27 | 48.06646 | 10.90415 | 5290 ft | 129 kts | 55° |
| 2026-05-09 09:27 | 48.07232 | 10.91410 | 5284 ft | 125 kts | 50° |
| 2026-05-09 09:27 | 48.07803 | 10.92396 | 5242 ft | 125 kts | 52° |
| 2026-05-09 09:27 | 48.08336 | 10.93456 | 5238 ft | 128 kts | 61° |
| 2026-05-09 09:28 | 48.08630 | 10.94201 | 5263 ft | 125 kts | 62° |
| 2026-05-09 09:28 | 48.09217 | 10.95782 | 5089 ft | 131 kts | 66° |
| 2026-05-09 09:28 | 48.09482 | 10.96578 | 5109 ft | 125 kts | 66° |
| 2026-05-09 09:28 | 48.09810 | 10.97780 | 5022 ft | 126 kts | 76° |
| 2026-05-09 09:29 | 48.10051 | 10.99018 | 4985 ft | 120 kts | 78° |
| 2026-05-09 09:29 | 48.10240 | 11.00266 | 5105 ft | 121 kts | 81° |
| 2026-05-09 09:29 | 48.10459 | 11.01452 | 5059 ft | 121 kts | 78° |
| 2026-05-09 09:29 | 48.10612 | 11.02712 | 4940 ft | 122 kts | 85° |
| 2026-05-09 09:30 | 48.10647 | 11.03995 | 4933 ft | 128 kts | 95° |
| 2026-05-09 09:30 | 48.10653 | 11.05276 | 4981 ft | 120 kts | 91° |
| 2026-05-09 09:30 | 48.10695 | 11.06581 | 4843 ft | 129 kts | 86° |
| 2026-05-09 09:30 | 48.10706 | 11.07913 | 4977 ft | 128 kts | 96° |
| 2026-05-09 09:31 | 48.10561 | 11.09303 | 4816 ft | 133 kts | 100° |
| 2026-05-09 09:31 | 48.10693 | 11.10673 | 4494 ft | 143 kts | 61° |
| 2026-05-09 09:31 | 48.11350 | 11.11720 | 4398 ft | 130 kts | 47° |
| 2026-05-09 09:32 | 48.12568 | 11.13840 | 4068 ft | 140 kts | 53° |
| 2026-05-09 09:32 | 48.13184 | 11.14946 | 4068 ft | 132 kts | 52° |
| 2026-05-09 09:32 | 48.13738 | 11.16022 | 3902 ft | 130 kts | 63° |
| 2026-05-09 09:32 | 48.14110 | 11.17257 | 3564 ft | 134 kts | 69° |
| 2026-05-09 09:33 | 48.14467 | 11.18604 | 3139 ft | 137 kts | 68° |
| 2026-05-09 09:33 | 48.14909 | 11.19786 | 2970 ft | 128 kts | 62° |
| 2026-05-09 09:33 | 48.15326 | 11.20918 | 2776 ft | 122 kts | 66° |
| 2026-05-09 09:33 | 48.15550 | 11.21929 | 3027 ft | 94 kts | 71° |
| 2026-05-09 09:34 | 48.15858 | 11.22946 | 2915 ft | 107 kts | 64° |
| 2026-05-09 09:34 | 48.16166 | 11.23887 | 2946 ft | 103 kts | 66° |
| 2026-05-09 09:34 | 48.16485 | 11.24923 | 2857 ft | 114 kts | 68° |
| 2026-05-09 09:36 | 48.18737 | 11.31695 | 3652 ft | 106 kts | 52° |
| 2026-05-09 09:36 | 48.19247 | 11.32588 | 3507 ft | 124 kts | 62° |
| 2026-05-09 09:36 | 48.19182 | 11.33789 | 3436 ft | 124 kts | 129° |
| 2026-05-09 09:37 | 48.18641 | 11.34705 | 3412 ft | 119 kts | 133° |
| 2026-05-09 09:37 | 48.18025 | 11.35592 | 3399 ft | 121 kts | 136° |
| 2026-05-09 09:37 | 48.17375 | 11.36394 | 3414 ft | 122 kts | 142° |
| 2026-05-09 09:37 | 48.16622 | 11.37074 | 3473 ft | 124 kts | 151° |
| 2026-05-09 09:38 | 48.16177 | 11.37386 | 3479 ft | 120 kts | 154° |
| 2026-05-09 09:38 | 48.16084 | 11.37446 | 3475 ft | 123 kts | 155° |
| 2026-05-09 09:38 | 48.15305 | 11.37901 | 3484 ft | 116 kts | 144° |
| 2026-05-09 09:38 | 48.14759 | 11.38709 | 3587 ft | 107 kts | 118° |
| 2026-05-09 09:39 | 48.14689 | 11.39831 | 3505 ft | 124 kts | 85° |
| 2026-05-09 09:39 | 48.14787 | 11.41125 | 3430 ft | 122 kts | 85° |
| 2026-05-09 09:39 | 48.14890 | 11.42399 | 3309 ft | 126 kts | 83° |
| 2026-05-09 09:39 | 48.14998 | 11.43717 | 3181 ft | 126 kts | 86° |
| 2026-05-09 09:40 | 48.15043 | 11.44920 | 3326 ft | 112 kts | 89° |
| 2026-05-09 09:40 | 48.15006 | 11.46081 | 3375 ft | 115 kts | 98° |
| 2026-05-09 09:40 | 48.14914 | 11.47263 | 3434 ft | 114 kts | 97° |
| 2026-05-09 09:40 | 48.14832 | 11.48452 | 3471 ft | 116 kts | 97° |
| 2026-05-09 09:41 | 48.14652 | 11.49669 | 3366 ft | 125 kts | 102° |
| 2026-05-09 09:41 | 48.14487 | 11.50975 | 3256 ft | 130 kts | 99° |
| 2026-05-09 09:41 | 48.14341 | 11.52284 | 3290 ft | 124 kts | 97° |
| 2026-05-09 09:41 | 48.14236 | 11.53568 | 3207 ft | 126 kts | 96° |
| 2026-05-09 09:42 | 48.14114 | 11.54842 | 3110 ft | 122 kts | 97° |
| 2026-05-09 09:42 | 48.14026 | 11.56098 | 2975 ft | 120 kts | 93° |
| 2026-05-09 09:42 | 48.13969 | 11.57331 | 2934 ft | 115 kts | 94° |
| 2026-05-09 09:42 | 48.13969 | 11.58541 | 2786 ft | 123 kts | 88° |
| 2026-05-09 09:43 | 48.13973 | 11.59808 | 2773 ft | 113 kts | 92° |
| 2026-05-09 09:43 | 48.13935 | 11.60995 | 2756 ft | 113 kts | 92° |
| 2026-05-09 09:43 | 48.13888 | 11.62146 | 2812 ft | 109 kts | 93° |
| 2026-05-09 09:43 | 48.13825 | 11.63283 | 2752 ft | 112 kts | 95° |
| 2026-05-09 09:44 | 48.13817 | 11.64412 | 2765 ft | 109 kts | 90° |
| 2026-05-09 09:44 | 48.13791 | 11.65508 | 2740 ft | 108 kts | 93° |
| 2026-05-09 09:44 | 48.13984 | 11.66551 | 2779 ft | 106 kts | 44° |
| 2026-05-09 09:44 | 48.14694 | 11.66758 | 2815 ft | 109 kts | 355° |
| 2026-05-09 09:45 | 48.15373 | 11.66373 | 2992 ft | 106 kts | 327° |
| 2026-05-09 09:45 | 48.15868 | 11.65465 | 2974 ft | 123 kts | 301° |
| 2026-05-09 09:45 | 48.16221 | 11.64300 | 2976 ft | 124 kts | 293° |
| 2026-05-09 09:45 | 48.16513 | 11.63035 | 2940 ft | 126 kts | 292° |
| 2026-05-09 09:46 | 48.16487 | 11.61881 | 3019 ft | 118 kts | 214° |
| 2026-05-09 09:46 | 48.15817 | 11.62032 | 3254 ft | 92 kts | 131° |
| 2026-05-09 09:46 | 48.15596 | 11.62957 | 3083 ft | 111 kts | 90° |
| 2026-05-09 09:46 | 48.15679 | 11.64100 | 3101 ft | 103 kts | 78° |
| 2026-05-09 09:47 | 48.15878 | 11.65077 | 3255 ft | 99 kts | 73° |
| 2026-05-09 09:47 | 48.16075 | 11.66182 | 3110 ft | 118 kts | 78° |
| 2026-05-09 09:47 | 48.16224 | 11.67416 | 2995 ft | 122 kts | 81° |
| 2026-05-09 09:47 | 48.16322 | 11.68676 | 2884 ft | 122 kts | 85° |
| 2026-05-09 09:48 | 48.16379 | 11.69887 | 2994 ft | 110 kts | 88° |
| 2026-05-09 09:48 | 48.16377 | 11.71031 | 3064 ft | 112 kts | 90° |
| 2026-05-09 09:48 | 48.16425 | 11.72189 | 3189 ft | 107 kts | 86° |
| 2026-05-09 09:48 | 48.16518 | 11.73310 | 3253 ft | 111 kts | 81° |
| 2026-05-09 09:49 | 48.16816 | 11.74382 | 3330 ft | 114 kts | 65° |
| 2026-05-09 09:49 | 48.17090 | 11.75539 | 3210 ft | 123 kts | 75° |
| 2026-05-09 09:49 | 48.17387 | 11.76726 | 3231 ft | 120 kts | 68° |
| 2026-05-09 09:49 | 48.17726 | 11.77851 | 3305 ft | 113 kts | 66° |
| 2026-05-09 09:50 | 48.18096 | 11.78900 | 3274 ft | 115 kts | 62° |
| 2026-05-09 09:50 | 48.18547 | 11.79942 | 3116 ft | 126 kts | 58° |
| 2026-05-09 09:50 | 48.19030 | 11.80981 | 3195 ft | 118 kts | 57° |
| 2026-05-09 09:50 | 48.19487 | 11.82031 | 3217 ft | 118 kts | 64° |
| 2026-05-09 09:51 | 48.19842 | 11.83172 | 3134 ft | 124 kts | 69° |
| 2026-05-09 09:51 | 48.20190 | 11.84339 | 3130 ft | 120 kts | 68° |
| 2026-05-09 09:51 | 48.20698 | 11.85315 | 3147 ft | 121 kts | 27° |
| 2026-05-09 09:51 | 48.21509 | 11.85131 | 3169 ft | 121 kts | 334° |
| 2026-05-09 09:52 | 48.22041 | 11.84184 | 3149 ft | 126 kts | 303° |
| 2026-05-09 09:52 | 48.22524 | 11.83041 | 3164 ft | 129 kts | 308° |
| 2026-05-09 09:52 | 48.23046 | 11.81945 | 3135 ft | 129 kts | 310° |
| 2026-05-09 09:52 | 48.23594 | 11.80856 | 3100 ft | 133 kts | 311° |
| 2026-05-09 09:53 | 48.24239 | 11.79836 | 3029 ft | 135 kts | 334° |
| 2026-05-09 09:53 | 48.25128 | 11.79583 | 2998 ft | 129 kts | 0° |
| 2026-05-09 09:53 | 48.26012 | 11.79514 | 2808 ft | 130 kts | 2° |
| 2026-05-09 09:53 | 48.26890 | 11.79543 | 2617 ft | 121 kts | 5° |
| 2026-05-09 09:54 | 48.27723 | 11.79612 | 2605 ft | 118 kts | 6° |
| 2026-05-09 09:54 | 48.28542 | 11.79717 | 2471 ft | 113 kts | 12° |
| 2026-05-09 09:54 | 48.29310 | 11.79850 | 2280 ft | 113 kts | 6° |
| 2026-05-09 09:54 | 48.30081 | 11.79777 | 2153 ft | 107 kts | 356° |
| 2026-05-09 09:55 | 48.30827 | 11.79621 | 2009 ft | 107 kts | 355° |
| 2026-05-09 09:55 | 48.31522 | 11.79376 | 2054 ft | 100 kts | 349° |
| 2026-05-09 09:55 | 48.32196 | 11.79049 | 2051 ft | 102 kts | 350° |
| 2026-05-09 09:55 | 48.32802 | 11.78612 | 1986 ft | 103 kts | 289° |
| 2026-05-09 09:56 | 48.32650 | 11.77498 | 2079 ft | 112 kts | 256° |
| 2026-05-09 09:56 | 48.32424 | 11.76364 | 2205 ft | 117 kts | 251° |
| 2026-05-09 09:56 | 48.32185 | 11.75177 | 2310 ft | 113 kts | 258° |
| 2026-05-09 09:56 | 48.32024 | 11.73970 | 2316 ft | 126 kts | 261° |
| 2026-05-09 09:57 | 48.31968 | 11.72773 | 2314 ft | 110 kts | 285° |
| 2026-05-09 09:57 | 48.32416 | 11.71878 | 2185 ft | 105 kts | 335° |
| 2026-05-09 09:57 | 48.33078 | 11.71590 | 2056 ft | 98 kts | 3° |
| 2026-05-09 09:57 | 48.33691 | 11.71921 | 1908 ft | 92 kts | 51° |
| 2026-05-09 09:58 | 48.33868 | 11.72830 | 1792 ft | 92 kts | 79° |
| 2026-05-09 09:58 | 48.33959 | 11.73770 | 1717 ft | 87 kts | 81° |
| 2026-05-09 09:58 | 48.34048 | 11.74686 | 1613 ft | 90 kts | 83° |
| 2026-05-09 09:58 | 48.34114 | 11.75614 | 1500 ft | 89 kts | 85° |
| 2026-05-09 09:59 | 48.34180 | 11.76385 | 1482 ft | 57 kts | 82° |
| 2026-05-09 09:59 | 48.34222 | 11.76856 | 1484 ft | 36 kts | 84° |
| 2026-05-09 09:59 | 48.34247 | 11.77114 | 1484 ft | 22 kts | 75° |
| 2026-05-09 09:59 | 48.34328 | 11.77090 | 1483 ft | 25 kts | 287° |
| 2026-05-09 10:00 | 48.34380 | 11.76844 | 1478 ft | 16 kts | 288° |
| 2026-05-09 10:00 | 48.34463 | 11.76777 | 1484 ft | 19 kts | 68° |
| 2026-05-09 10:00 | 48.34484 | 11.76993 | 1483 ft | 22 kts | 86° |
| 2026-05-09 10:00 | 48.34502 | 11.77222 | 1483 ft | 23 kts | 79° |
| 2026-05-09 10:01 | 48.34518 | 11.77479 | 1482 ft | 26 kts | 84° |
| 2026-05-09 10:01 | 48.34540 | 11.77756 | 1476 ft | 26 kts | 80° |
| 2026-05-09 10:01 | 48.34561 | 11.78029 | 1481 ft | 25 kts | 82° |
| 2026-05-09 10:01 | 48.34588 | 11.78308 | 1480 ft | 29 kts | 83° |
| 2026-05-09 10:02 | 48.34608 | 11.78612 | 1479 ft | 28 kts | 84° |
| 2026-05-09 10:02 | 48.34629 | 11.78883 | 1478 ft | 26 kts | 84° |
| 2026-05-09 10:02 | 48.34649 | 11.79135 | 1477 ft | 22 kts | 83° |
| 2026-05-09 10:02 | 48.34668 | 11.79369 | 1472 ft | 22 kts | 85° |
| 2026-05-09 10:03 | 48.34680 | 11.79575 | 1476 ft | 20 kts | 82° |
| 2026-05-09 10:03 | 48.34734 | 11.79717 | 1475 ft | 18 kts | 0° |
| 2026-05-09 10:03 | 48.34863 | 11.79701 | 1471 ft | 6 kts | 1° |
| 2026-05-09 10:03 | 48.34902 | 11.79696 | 1474 ft | 4 kts | 346° |
| 2026-05-09 10:04 | 48.34906 | 11.79695 | 1474 ft | 0 kts | 352° |
| 2026-05-09 10:07 | 48.34909 | 11.79694 | 1471 ft | 4 kts | 352° |
| 2026-05-09 10:07 | 48.34981 | 11.79677 | 1474 ft | 16 kts | 356° |
| 2026-05-09 10:07 | 48.35063 | 11.79699 | 1470 ft | 14 kts | 38° |
| 2026-05-09 10:08 | 48.35083 | 11.79863 | 1473 ft | 19 kts | 81° |
| 2026-05-09 10:08 | 48.35090 | 11.79933 | 1472 ft | 0 kts | 79° |
| 2026-05-09 10:08 | 48.35090 | 11.79934 | 1472 ft | 0 kts | 79° |
| 2026-05-09 10:09 | 48.35097 | 11.80002 | 1472 ft | 13 kts | 84° |
| 2026-05-09 10:09 | 48.35110 | 11.80167 | 1472 ft | 15 kts | 62° |
| 2026-05-09 10:10 | 48.35232 | 11.80178 | 1465 ft | 19 kts | 347° |
| 2026-05-09 10:10 | 48.35367 | 11.80143 | 1466 ft | 21 kts | 351° |
| 2026-05-09 10:10 | 48.35418 | 11.80240 | 1468 ft | 18 kts | 95° |
| 2026-05-09 10:10 | 48.35424 | 11.80429 | 1468 ft | 14 kts | 85° |
| 2026-05-09 10:11 | 48.35353 | 11.80469 | 1468 ft | 14 kts | 241° |
| 2026-05-09 10:11 | 48.35349 | 11.80386 | 1469 ft | 0 kts | 260° |